createdAt,value
2022-08-17T00:00:10.211Z,7.97
2022-08-17T00:03:25.558Z,6.75
2022-08-17T00:05:58.788Z,6.20
2022-08-17T00:08:32.420Z,7.40
2022-08-17T00:10:59.849Z,6.25
2022-08-17T00:13:30.074Z,5.60
2022-08-17T00:15:59.775Z,6.13
2022-08-17T00:19:02.183Z,6.10
2022-08-17T00:23:47.776Z,5.55
2022-08-17T00:26:16.409Z,6.05
2022-08-17T00:29:03.094Z,6.13
2022-08-17T00:31:29.636Z,6.85
2022-08-17T00:33:56.209Z,6.22
2022-08-17T00:36:24.095Z,7.60
2022-08-17T00:38:51.256Z,6.22
2022-08-17T00:41:21.113Z,6.38
2022-08-17T00:44:06.555Z,7.22
2022-08-17T00:46:36.512Z,6.10
2022-08-17T00:49:04.875Z,8.23
2022-08-17T00:51:54.732Z,6.05
2022-08-17T00:54:24.167Z,6.55
2022-08-17T00:56:55.493Z,5.97
2022-08-17T00:59:23.889Z,6.40
2022-08-17T01:01:51.039Z,7.55
2022-08-17T01:04:20.140Z,6.90
2022-08-17T01:06:49.321Z,6.30
2022-08-17T01:09:16.738Z,6.35
2022-08-17T01:11:44.366Z,6.10
2022-08-17T01:14:10.912Z,6.72
2022-08-17T01:16:38.406Z,8.20
2022-08-17T01:19:24.052Z,7.35
2022-08-17T01:21:52.659Z,6.10
2022-08-17T01:24:19.259Z,6.10
2022-08-17T01:26:46.347Z,6.05
2022-08-17T01:29:13.354Z,7.68
2022-08-17T01:31:43.534Z,7.55
2022-08-17T01:34:12.570Z,5.63
2022-08-17T01:36:41.482Z,7.72
2022-08-17T01:39:12.596Z,6.20
2022-08-17T01:41:41.069Z,6.82
2022-08-17T01:44:08.456Z,6.00
2022-08-17T01:46:37.048Z,7.30
2022-08-17T01:49:08.752Z,6.10
2022-08-17T01:51:35.445Z,6.20
2022-08-17T01:54:05.651Z,7.03
2022-08-17T01:56:34.598Z,6.65
2022-08-17T01:59:01.394Z,7.13
2022-08-17T02:01:29.940Z,6.28
2022-08-17T02:04:01.226Z,6.47
2022-08-17T02:06:31.367Z,8.60
2022-08-17T02:09:08.480Z,7.75
2022-08-17T02:11:43.235Z,6.47
2022-08-17T02:14:11.277Z,6.20
2022-08-17T02:16:40.202Z,6.88
2022-08-17T02:21:34.609Z,6.00
2022-08-17T02:24:01.252Z,7.97
2022-08-17T02:26:27.918Z,7.38
2022-08-17T02:28:54.786Z,6.15
2022-08-17T02:31:21.403Z,7.65
2022-08-17T02:34:00.312Z,6.72
2022-08-17T02:36:31.032Z,6.10
2022-08-17T02:38:58.512Z,7.63
2022-08-17T02:41:25.049Z,6.32
2022-08-17T02:43:52.098Z,7.78
2022-08-17T02:46:19.473Z,7.60
2022-08-17T02:48:45.991Z,6.63
2022-08-17T02:51:12.510Z,6.95
2022-08-17T02:53:39.026Z,6.63
2022-08-17T02:56:05.667Z,8.63
2022-08-17T02:58:34.509Z,7.20
2022-08-17T03:01:04.797Z,6.30
2022-08-17T03:05:57.869Z,6.38
2022-08-17T03:08:25.406Z,7.88
2022-08-17T03:10:52.049Z,7.88
2022-08-17T03:13:18.596Z,8.23
2022-08-17T03:15:47.051Z,6.75
2022-08-17T03:18:24.345Z,8.32
2022-08-17T03:20:57.929Z,7.20
2022-08-17T03:23:25.668Z,8.27
2022-08-17T03:25:53.813Z,6.63
2022-08-17T03:28:21.436Z,7.07
2022-08-17T03:30:47.972Z,9.85
2022-08-17T03:33:14.811Z,8.88
2022-08-17T03:35:41.696Z,7.45
2022-08-17T03:38:10.134Z,8.25
2022-08-17T03:40:56.290Z,6.63
2022-08-17T03:43:24.398Z,6.63
2022-08-17T03:46:10.879Z,6.40
2022-08-17T03:49:12.653Z,6.72
2022-08-17T03:51:57.920Z,9.35
2022-08-17T03:54:42.812Z,8.63
2022-08-17T03:57:11.091Z,9.05
2022-08-17T03:59:38.732Z,8.45
2022-08-17T04:02:11.138Z,8.95
2022-08-17T04:04:38.150Z,7.20
2022-08-17T04:07:05.532Z,6.97
2022-08-17T04:09:32.282Z,8.25
2022-08-17T04:12:01.139Z,6.30
2022-08-17T04:14:36.269Z,6.93
2022-08-17T04:17:19.616Z,7.03
2022-08-17T04:19:46.897Z,8.02
2022-08-17T04:22:31.906Z,8.52
2022-08-17T04:25:15.334Z,7.07
2022-08-17T04:30:09.196Z,6.63
2022-08-17T04:33:04.943Z,8.77
2022-08-17T04:35:39.292Z,8.00
2022-08-17T04:38:07.465Z,8.25
2022-08-17T04:40:53.241Z,6.78
2022-08-17T04:43:21.665Z,7.93
2022-08-17T04:45:57.306Z,6.15
2022-08-17T04:48:35.221Z,7.82
2022-08-17T04:51:05.953Z,6.57
2022-08-17T04:53:32.642Z,8.55
2022-08-17T04:55:59.273Z,7.57
2022-08-17T04:58:25.932Z,6.55
2022-08-17T05:00:52.673Z,6.70
2022-08-17T05:03:19.464Z,6.50
2022-08-17T05:05:49.818Z,8.38
2022-08-17T05:08:18.867Z,6.40
2022-08-17T05:13:24.095Z,6.68
2022-08-17T05:15:55.706Z,8.68
2022-08-17T05:18:22.511Z,6.80
2022-08-17T05:20:51.262Z,6.60
2022-08-17T05:23:21.148Z,7.65
2022-08-17T05:25:50.369Z,7.35
2022-08-17T05:28:18.818Z,7.07
2022-08-17T05:30:50.814Z,6.88
2022-08-17T05:33:24.216Z,7.13
2022-08-17T05:35:52.490Z,6.78
2022-08-17T05:38:20.940Z,8.35
2022-08-17T05:40:47.473Z,6.80
2022-08-17T05:43:15.217Z,6.32
2022-08-17T05:48:22.894Z,8.48
2022-08-17T05:51:21.020Z,5.80
2022-08-17T05:54:15.087Z,6.22
2022-08-17T05:56:41.675Z,5.95
2022-08-17T05:59:18.870Z,6.43
2022-08-17T06:01:55.038Z,5.68
2022-08-17T06:04:58.880Z,6.63
2022-08-17T06:07:43.550Z,5.90
2022-08-17T06:10:19.553Z,7.88
2022-08-17T06:12:46.128Z,5.57
2022-08-17T06:15:26.303Z,6.00
2022-08-17T06:17:56.281Z,6.68
2022-08-17T06:20:23.598Z,7.00
2022-08-17T06:22:53.451Z,7.03
2022-08-17T06:25:30.258Z,5.50
2022-08-17T06:28:09.598Z,5.07
2022-08-17T06:30:58.590Z,6.82
2022-08-17T06:33:34.282Z,4.85
2022-08-17T06:36:26.351Z,5.05
2022-08-17T06:39:02.324Z,5.25
2022-08-17T06:41:49.483Z,5.18
2022-08-17T06:44:43.168Z,4.50
2022-08-17T06:47:28.850Z,4.85
2022-08-17T06:50:21.699Z,4.57
2022-08-17T06:52:59.952Z,5.05
2022-08-17T06:55:56.005Z,4.93
2022-08-17T06:58:31.487Z,4.93
2022-08-17T07:01:03.078Z,5.22
2022-08-17T07:03:44.815Z,4.97
2022-08-17T07:06:24.698Z,6.38
2022-08-17T07:08:56.168Z,4.88
2022-08-17T07:11:27.505Z,6.28
2022-08-17T07:14:00.147Z,4.35
2022-08-17T07:16:32.982Z,3.75
2022-08-17T07:18:59.955Z,4.38
2022-08-17T07:22:13.983Z,4.63
2022-08-17T07:24:47.322Z,6.65
2022-08-17T07:27:27.501Z,4.13
2022-08-17T07:30:04.669Z,4.55
2022-08-17T07:32:59.453Z,4.10
2022-08-17T07:35:37.547Z,3.83
2022-08-17T07:38:25.701Z,3.67
2022-08-17T07:41:05.975Z,3.83
2022-08-17T07:43:37.240Z,3.55
2022-08-17T07:46:45.382Z,3.78
2022-08-17T07:49:15.018Z,3.83
2022-08-17T07:51:45.496Z,4.25
2022-08-17T07:54:15.082Z,5.60
2022-08-17T07:56:53.887Z,3.97
2022-08-17T07:59:23.862Z,5.30
2022-08-17T08:01:58.140Z,3.88
2022-08-17T08:05:00.264Z,3.60
2022-08-17T08:07:24.383Z,3.55
2022-08-17T08:10:07.965Z,3.92
2022-08-17T08:12:39.377Z,3.47
2022-08-17T08:15:17.630Z,3.83
2022-08-17T08:17:47.432Z,3.00
2022-08-17T08:20:47.678Z,3.20
2022-08-17T08:23:07.737Z,3.55
2022-08-17T08:25:53.675Z,3.67
2022-08-17T08:28:50.806Z,3.55
2022-08-17T08:31:24.397Z,4.65
2022-08-17T08:35:00.800Z,3.25
2022-08-17T08:37:19.276Z,2.85
2022-08-17T08:39:57.836Z,3.10
2022-08-17T08:42:34.322Z,2.92
2022-08-17T08:45:22.723Z,2.67
2022-08-17T08:48:12.749Z,5.43
2022-08-17T08:53:44.734Z,3.25
2022-08-17T08:56:33.033Z,3.25
2022-08-17T08:59:30.195Z,2.80
2022-08-17T09:01:59.787Z,3.75
2022-08-17T09:05:20.084Z,3.50
2022-08-17T09:07:56.257Z,3.97
2022-08-17T09:10:34.912Z,2.13
2022-08-17T09:13:09.334Z,3.22
2022-08-17T09:15:44.804Z,3.20
2022-08-17T09:19:00.011Z,3.78
2022-08-17T09:21:47.795Z,4.50
2022-08-17T09:24:43.672Z,2.83
2022-08-17T09:27:14.677Z,4.05
2022-08-17T09:29:55.017Z,2.05
2022-08-17T09:32:25.324Z,2.30
2022-08-17T09:34:54.904Z,2.25
2022-08-17T09:37:27.600Z,2.63
2022-08-17T09:40:11.610Z,3.55
2022-08-17T09:42:45.729Z,2.67
2022-08-17T09:45:36.404Z,1.98
2022-08-17T09:48:12.196Z,2.72
2022-08-17T09:51:03.158Z,1.95
2022-08-17T09:53:31.958Z,3.60
2022-08-17T09:56:24.129Z,3.15
2022-08-17T09:59:17.278Z,3.33
2022-08-17T10:02:00.453Z,2.30
2022-08-17T10:04:32.778Z,3.17
2022-08-17T10:07:19.202Z,2.20
2022-08-17T10:09:56.877Z,2.60
2022-08-17T10:12:36.871Z,3.17
2022-08-17T10:15:25.850Z,1.83
2022-08-17T10:17:59.297Z,3.45
2022-08-17T10:20:31.062Z,3.55
2022-08-17T10:23:21.443Z,3.28
2022-08-17T10:26:04.510Z,3.40
2022-08-17T10:28:52.646Z,4.07
2022-08-17T10:31:40.245Z,2.40
2022-08-17T10:34:45.877Z,3.70
2022-08-17T10:37:36.416Z,3.10
2022-08-17T10:40:38.704Z,2.45
2022-08-17T10:43:14.829Z,3.20
2022-08-17T10:46:14.942Z,3.85
2022-08-17T10:49:16.817Z,1.90
2022-08-17T10:51:48.003Z,3.33
2022-08-17T10:54:47.640Z,1.70
2022-08-17T10:57:23.331Z,1.83
2022-08-17T10:59:52.074Z,2.85
2022-08-17T11:02:45.734Z,2.88
2022-08-17T11:05:43.793Z,1.63
2022-08-17T11:08:38.403Z,2.03
2022-08-17T11:11:20.101Z,1.95
2022-08-17T11:13:55.882Z,1.98
2022-08-17T11:16:53.352Z,3.42
2022-08-17T11:19:41.866Z,3.80
2022-08-17T11:22:11.630Z,3.33
2022-08-17T11:24:58.452Z,3.25
2022-08-17T11:27:27.890Z,1.60
2022-08-17T11:30:02.260Z,1.65
2022-08-17T11:32:32.134Z,2.17
2022-08-17T11:35:21.561Z,3.35
2022-08-17T11:38:10.853Z,3.55
2022-08-17T11:41:03.952Z,1.98
2022-08-17T11:43:49.344Z,3.08
2022-08-17T11:46:18.960Z,2.53
2022-08-17T11:49:21.914Z,3.17
2022-08-17T11:52:01.329Z,3.47
2022-08-17T11:54:33.225Z,3.35
2022-08-17T11:57:21.729Z,1.92
2022-08-17T11:59:48.225Z,3.03
2022-08-17T12:02:47.887Z,2.38
2022-08-17T12:05:16.790Z,2.10
2022-08-17T12:10:31.604Z,3.40
2022-08-17T12:13:07.274Z,2.10
2022-08-17T12:15:50.988Z,3.50
2022-08-17T12:18:25.540Z,2.10
2022-08-17T12:23:47.343Z,2.30
2022-08-17T12:26:22.729Z,2.50
2022-08-17T12:28:57.381Z,2.22
2022-08-17T12:31:29.781Z,2.45
2022-08-17T12:33:56.970Z,3.03
2022-08-17T12:36:25.077Z,3.85
2022-08-17T12:38:59.403Z,3.10
2022-08-17T12:41:44.825Z,2.22
2022-08-17T12:44:12.092Z,3.83
2022-08-17T12:46:53.107Z,3.60
2022-08-17T12:49:26.571Z,1.88
2022-08-17T12:52:07.416Z,2.17
2022-08-17T12:54:56.008Z,2.80
2022-08-17T12:57:44.480Z,3.15
2022-08-17T13:00:35.349Z,3.17
2022-08-17T13:03:05.943Z,1.77
2022-08-17T13:05:37.924Z,1.73
2022-08-17T13:08:45.030Z,1.90
2022-08-17T13:11:14.539Z,2.35
2022-08-17T13:13:44.468Z,2.83
2022-08-17T13:16:17.123Z,2.08
2022-08-17T13:18:52.805Z,1.98
2022-08-17T13:21:19.302Z,2.67
2022-08-17T13:24:07.269Z,2.22
2022-08-17T13:26:37.123Z,1.95
2022-08-17T13:29:33.576Z,2.00
2022-08-17T13:32:11.613Z,1.95
2022-08-17T13:35:07.802Z,3.40
2022-08-17T13:37:35.827Z,2.33
2022-08-17T13:40:11.743Z,3.25
2022-08-17T13:42:51.843Z,3.60
2022-08-17T13:45:35.245Z,1.88
2022-08-17T13:48:27.452Z,2.63
2022-08-17T13:50:57.031Z,3.42
2022-08-17T13:53:35.482Z,3.67
2022-08-17T13:56:37.168Z,2.20
2022-08-17T13:59:04.548Z,3.72
2022-08-17T14:01:39.418Z,2.20
2022-08-17T14:04:17.550Z,3.45
2022-08-17T14:07:08.714Z,2.30
2022-08-17T14:09:37.810Z,2.13
2022-08-17T14:12:10.548Z,2.95
2022-08-17T14:14:37.807Z,3.60
2022-08-17T14:17:04.977Z,2.30
2022-08-17T14:19:33.450Z,3.17
2022-08-17T14:22:00.473Z,2.60
2022-08-17T14:24:30.711Z,2.65
2022-08-17T14:26:58.411Z,2.40
2022-08-17T14:29:27.830Z,3.70
2022-08-17T14:31:55.860Z,3.00
2022-08-17T14:36:50.195Z,4.13
2022-08-17T14:39:17.699Z,2.20
2022-08-17T14:41:44.308Z,2.45
2022-08-17T14:44:12.468Z,2.67
2022-08-17T14:49:08.544Z,2.60
2022-08-17T14:51:43.553Z,2.35
2022-08-17T14:54:11.579Z,2.20
2022-08-17T14:57:14.809Z,3.42
2022-08-17T14:59:44.778Z,2.13
2022-08-17T15:02:11.669Z,3.83
2022-08-17T15:04:41.863Z,2.53
2022-08-17T15:07:11.643Z,3.55
2022-08-17T15:09:38.224Z,3.80
2022-08-17T15:12:08.165Z,2.30
2022-08-17T15:14:36.293Z,2.28
2022-08-17T15:17:03.581Z,2.28
2022-08-17T15:19:30.153Z,4.03
2022-08-17T15:21:56.899Z,3.88
2022-08-17T15:24:23.509Z,2.08
2022-08-17T15:26:50.148Z,3.92
2022-08-17T15:29:17.049Z,3.78
2022-08-17T15:31:43.685Z,2.83
2022-08-17T15:34:10.274Z,4.18
2022-08-17T15:36:37.028Z,3.67
2022-08-17T15:39:05.380Z,2.58
2022-08-17T15:41:32.229Z,4.38
2022-08-17T15:43:58.851Z,2.35
2022-08-17T15:46:26.523Z,2.40
2022-08-17T15:48:58.252Z,3.13
2022-08-17T15:51:31.041Z,2.60
2022-08-17T15:54:00.370Z,3.97
2022-08-17T15:56:31.712Z,2.33
2022-08-17T15:58:59.250Z,2.42
2022-08-17T16:01:42.280Z,4.85
2022-08-17T16:04:30.428Z,3.92
2022-08-17T16:06:59.334Z,2.80
2022-08-17T16:09:26.007Z,2.80
2022-08-17T16:11:56.051Z,2.88
2022-08-17T16:14:33.884Z,3.08
2022-08-17T16:17:03.732Z,4.25
2022-08-17T16:21:56.979Z,2.33
2022-08-17T16:24:23.696Z,4.70
2022-08-17T16:26:50.383Z,4.15
2022-08-17T16:29:17.124Z,3.97
2022-08-17T16:31:43.791Z,2.80
2022-08-17T16:34:17.645Z,2.72
2022-08-17T16:39:27.357Z,2.90
2022-08-17T16:41:55.794Z,2.88
2022-08-17T16:46:50.311Z,3.08
2022-08-17T16:49:36.259Z,3.03
2022-08-17T16:52:05.909Z,2.53
2022-08-17T16:54:33.482Z,4.65
2022-08-17T16:57:00.214Z,4.05
2022-08-17T16:59:31.363Z,2.40
2022-08-17T17:02:10.896Z,2.97
2022-08-17T17:05:02.594Z,3.58
2022-08-17T17:07:38.330Z,4.43
2022-08-17T17:10:09.019Z,2.85
2022-08-17T17:13:03.164Z,3.25
2022-08-17T17:15:28.591Z,4.47
2022-08-17T17:18:07.167Z,3.10
2022-08-17T17:20:48.127Z,4.57
2022-08-17T17:23:34.267Z,3.08
2022-08-17T17:26:28.806Z,2.90
2022-08-17T17:29:13.182Z,3.22
2022-08-17T17:31:48.192Z,4.25
2022-08-17T17:34:16.558Z,4.13
2022-08-17T17:36:48.273Z,5.07
2022-08-17T17:39:22.006Z,4.60
2022-08-17T17:41:56.247Z,2.45
2022-08-17T17:44:28.724Z,2.70
2022-08-17T17:46:58.062Z,4.28
2022-08-17T17:49:33.188Z,4.20
2022-08-17T17:52:10.194Z,3.42
2022-08-17T17:55:00.912Z,2.58
2022-08-17T17:57:56.359Z,2.83
2022-08-17T18:00:26.037Z,2.88
2022-08-17T18:03:17.512Z,4.35
2022-08-17T18:06:18.664Z,4.55
2022-08-17T18:09:03.146Z,2.60
2022-08-17T18:12:03.635Z,2.53
2022-08-17T18:14:54.855Z,2.75
2022-08-17T18:17:21.465Z,4.13
2022-08-17T18:19:48.274Z,2.83
2022-08-17T18:22:21.936Z,4.75
2022-08-17T18:24:55.862Z,2.88
2022-08-17T18:27:39.629Z,2.78
2022-08-17T18:30:12.211Z,3.53
2022-08-17T18:32:43.643Z,3.05
2022-08-17T18:35:10.376Z,4.43
2022-08-17T18:37:46.421Z,3.47
2022-08-17T18:40:19.509Z,5.15
2022-08-17T18:43:44.090Z,3.45
2022-08-17T18:46:28.341Z,3.35
2022-08-17T18:49:06.788Z,3.05
2022-08-17T18:51:50.222Z,4.88
2022-08-17T18:54:24.791Z,4.68
2022-08-17T18:57:00.550Z,4.68
2022-08-17T18:59:49.312Z,4.25
2022-08-17T19:02:43.396Z,3.72
2022-08-17T19:05:36.118Z,5.70
2022-08-17T19:08:35.446Z,4.68
2022-08-17T19:11:04.730Z,3.33
2022-08-17T19:13:57.621Z,2.75
2022-08-17T19:16:45.947Z,4.80
2022-08-17T19:19:23.305Z,4.60
2022-08-17T19:22:28.836Z,2.97
2022-08-17T19:25:09.390Z,3.13
2022-08-17T19:27:46.406Z,3.15
2022-08-17T19:30:16.795Z,5.40
2022-08-17T19:32:43.478Z,3.88
2022-08-17T19:35:16.686Z,3.78
2022-08-17T19:37:53.586Z,3.70
2022-08-17T19:40:52.145Z,5.97
2022-08-17T19:43:35.032Z,3.50
2022-08-17T19:46:18.725Z,3.58
2022-08-17T19:48:54.366Z,3.63
2022-08-17T19:51:43.749Z,3.20
2022-08-17T19:54:20.397Z,4.10
2022-08-17T19:56:54.650Z,3.60
2022-08-17T19:59:49.403Z,3.60
2022-08-17T20:02:41.902Z,3.67
2022-08-17T20:05:15.807Z,4.05
2022-08-17T20:07:49.721Z,3.17
2022-08-17T20:10:54.399Z,3.67
2022-08-17T20:13:33.296Z,4.32
2022-08-17T20:16:01.396Z,3.40
2022-08-17T20:18:33.941Z,3.60
2022-08-17T20:21:19.912Z,5.35
2022-08-17T20:24:12.030Z,4.00
2022-08-17T20:26:58.604Z,3.53
2022-08-17T20:29:54.976Z,4.22
2022-08-17T20:32:27.661Z,4.15
2022-08-17T20:35:05.386Z,4.28
2022-08-17T20:37:34.460Z,6.28
2022-08-17T20:40:01.109Z,4.97
2022-08-17T20:42:30.696Z,4.13
2022-08-17T20:45:17.964Z,5.38
2022-08-17T20:48:15.273Z,4.30
2022-08-17T20:50:43.411Z,5.03
2022-08-17T20:53:13.430Z,5.80
2022-08-17T20:55:52.572Z,4.15
2022-08-17T20:58:23.214Z,3.97
2022-08-17T21:00:59.029Z,5.57
2022-08-17T21:03:47.582Z,5.53
2022-08-17T21:06:18.143Z,5.82
2022-08-17T21:08:54.032Z,5.45
2022-08-17T21:12:02.640Z,3.92
2022-08-17T21:14:26.067Z,5.30
2022-08-17T21:17:12.102Z,3.95
2022-08-17T21:20:10.961Z,5.38
2022-08-17T21:22:43.694Z,6.28
2022-08-17T21:25:24.614Z,5.43
2022-08-17T21:28:10.702Z,4.90
2022-08-17T21:30:39.249Z,4.63
2022-08-17T21:33:16.598Z,4.47
2022-08-17T21:35:48.747Z,5.05
2022-08-17T21:38:19.377Z,5.95
2022-08-17T21:40:50.052Z,4.60
2022-08-17T21:43:31.932Z,4.38
2022-08-17T21:46:03.968Z,5.72
2022-08-17T21:48:41.308Z,5.93
2022-08-17T21:51:17.576Z,4.57
2022-08-17T21:53:50.563Z,4.78
2022-08-17T21:56:24.623Z,4.55
2022-08-17T21:58:58.637Z,6.10
2022-08-17T22:01:31.153Z,4.28
2022-08-17T22:04:20.582Z,6.50
2022-08-17T22:06:52.683Z,6.07
2022-08-17T22:09:25.750Z,4.68
2022-08-17T22:11:54.633Z,5.10
2022-08-17T22:14:26.493Z,4.85
2022-08-17T22:17:22.016Z,3.97
2022-08-17T22:20:15.743Z,6.55
2022-08-17T22:23:04.122Z,6.20
2022-08-17T22:25:33.220Z,4.40
2022-08-17T22:28:05.713Z,4.82
2022-08-17T22:30:36.392Z,5.90
2022-08-17T22:33:33.844Z,4.90
2022-08-17T22:36:30.058Z,5.10
2022-08-17T22:39:04.405Z,5.55
2022-08-17T22:41:32.485Z,6.35
2022-08-17T22:44:12.918Z,6.95
2022-08-17T22:46:47.211Z,5.32
2022-08-17T22:49:22.265Z,5.25
2022-08-17T22:51:48.808Z,6.28
2022-08-17T22:54:36.320Z,4.97
2022-08-17T22:57:22.989Z,5.72
2022-08-17T22:59:53.135Z,5.53
2022-08-17T23:02:21.673Z,5.03
2022-08-17T23:05:15.773Z,5.13
2022-08-17T23:07:45.428Z,5.60
2022-08-17T23:10:13.698Z,6.65
2022-08-17T23:12:40.586Z,4.85
2022-08-17T23:15:17.722Z,6.25
2022-08-17T23:17:47.164Z,4.88
2022-08-17T23:20:15.469Z,4.95
2022-08-17T23:22:51.241Z,4.85
2022-08-17T23:25:26.410Z,6.30
2022-08-17T23:27:53.277Z,4.90
2022-08-17T23:30:20.458Z,6.85
2022-08-17T23:32:53.868Z,6.68
2022-08-17T23:35:38.768Z,5.30
2022-08-17T23:38:08.678Z,6.97
2022-08-17T23:40:35.289Z,5.25
2022-08-17T23:43:04.482Z,6.68
2022-08-17T23:45:32.587Z,4.95
2022-08-17T23:48:00.268Z,5.43
2022-08-17T23:50:29.986Z,7.20
2022-08-17T23:52:57.780Z,4.82
2022-08-17T23:55:24.405Z,5.13
2022-08-17T23:57:51.160Z,7.03
